sensor_id;sensor_type;location;lat;lon;timestamp;temperature;humidity
59128;DHT22;44912;52.754;5.994;2023-11-21T00:02:23;9.20;99.90
59128;DHT22;44912;52.754;5.994;2023-11-21T00:04:49;9.20;99.90
59128;DHT22;44912;52.754;5.994;2023-11-21T00:07:14;9.20;99.90
59128;DHT22;44912;52.754;5.994;2023-11-21T00:09:41;9.30;99.90
59128;DHT22;44912;52.754;5.994;2023-11-21T00:12:10;9.20;99.90
59128;DHT22;44912;52.754;5.994;2023-11-21T00:14:38;9.20;99.90
59128;DHT22;44912;52.754;5.994;2023-11-21T00:17:04;9.20;99.90
59128;DHT22;44912;52.754;5.994;2023-11-21T00:19:33;9.20;99.90
59128;DHT22;44912;52.754;5.994;2023-11-21T00:22:02;9.20;99.90
59128;DHT22;44912;52.754;5.994;2023-11-21T00:24:28;9.30;99.90
59128;DHT22;44912;52.754;5.994;2023-11-21T00:26:53;9.30;99.90
59128;DHT22;44912;52.754;5.994;2023-11-21T00:29:19;9.30;99.90
59128;DHT22;44912;52.754;5.994;2023-11-21T00:31:45;9.30;99.90
59128;DHT22;44912;52.754;5.994;2023-11-21T00:34:13;9.40;99.90
59128;DHT22;44912;52.754;5.994;2023-11-21T00:36:40;9.40;99.90
59128;DHT22;44912;52.754;5.994;2023-11-21T00:39:05;9.30;99.90
59128;DHT22;44912;52.754;5.994;2023-11-21T00:41:31;9.40;99.90
59128;DHT22;44912;52.754;5.994;2023-11-21T00:43:57;9.30;99.90
59128;DHT22;44912;52.754;5.994;2023-11-21T00:46:24;9.40;99.90
59128;DHT22;44912;52.754;5.994;2023-11-21T00:48:52;9.40;99.90
59128;DHT22;44912;52.754;5.994;2023-11-21T00:51:19;9.40;99.90
59128;DHT22;44912;52.754;5.994;2023-11-21T00:53:45;9.40;99.90
59128;DHT22;44912;52.754;5.994;2023-11-21T00:56:10;9.50;99.90
59128;DHT22;44912;52.754;5.994;2023-11-21T00:58:36;9.40;99.90
59128;DHT22;44912;52.754;5.994;2023-11-21T01:01:01;9.40;99.90
59128;DHT22;44912;52.754;5.994;2023-11-21T01:03:28;9.40;99.90
59128;DHT22;44912;52.754;5.994;2023-11-21T01:05:54;9.40;99.90
59128;DHT22;44912;52.754;5.994;2023-11-21T01:08:19;9.40;99.90
59128;DHT22;44912;52.754;5.994;2023-11-21T01:10:45;9.40;99.90
59128;DHT22;44912;52.754;5.994;2023-11-21T01:13:11;9.40;99.90
59128;DHT22;44912;52.754;5.994;2023-11-21T01:15:36;9.40;99.90
59128;DHT22;44912;52.754;5.994;2023-11-21T01:18:02;9.40;99.90
59128;DHT22;44912;52.754;5.994;2023-11-21T01:20:29;9.40;99.90
59128;DHT22;44912;52.754;5.994;2023-11-21T01:22:54;9.30;99.90
59128;DHT22;44912;52.754;5.994;2023-11-21T01:25:20;9.40;99.90
59128;DHT22;44912;52.754;5.994;2023-11-21T01:27:46;9.40;99.90
59128;DHT22;44912;52.754;5.994;2023-11-21T01:30:13;9.40;99.90
59128;DHT22;44912;52.754;5.994;2023-11-21T01:32:39;9.40;99.90
59128;DHT22;44912;52.754;5.994;2023-11-21T01:35:05;9.50;99.90
59128;DHT22;44912;52.754;5.994;2023-11-21T01:37:32;9.40;99.90
59128;DHT22;44912;52.754;5.994;2023-11-21T01:39:58;9.50;99.90
59128;DHT22;44912;52.754;5.994;2023-11-21T01:42:24;9.50;99.90
59128;DHT22;44912;52.754;5.994;2023-11-21T01:44:50;9.40;99.90
59128;DHT22;44912;52.754;5.994;2023-11-21T01:47:16;9.50;99.90
59128;DHT22;44912;52.754;5.994;2023-11-21T01:49:44;9.50;99.90
59128;DHT22;44912;52.754;5.994;2023-11-21T01:52:11;9.50;99.90
59128;DHT22;44912;52.754;5.994;2023-11-21T01:54:37;9.50;99.90
59128;DHT22;44912;52.754;5.994;2023-11-21T01:57:04;9.50;99.90
59128;DHT22;44912;52.754;5.994;2023-11-21T01:59:37;9.50;99.90
59128;DHT22;44912;52.754;5.994;2023-11-21T02:02:07;9.50;99.90
59128;DHT22;44912;52.754;5.994;2023-11-21T02:04:33;9.50;99.90
59128;DHT22;44912;52.754;5.994;2023-11-21T02:06:59;9.50;99.90
59128;DHT22;44912;52.754;5.994;2023-11-21T02:09:28;9.50;99.90
59128;DHT22;44912;52.754;5.994;2023-11-21T02:11:56;9.50;99.90
59128;DHT22;44912;52.754;5.994;2023-11-21T02:14:24;9.50;99.90
59128;DHT22;44912;52.754;5.994;2023-11-21T02:16:52;9.50;99.90
59128;DHT22;44912;52.754;5.994;2023-11-21T02:19:19;9.50;99.90
59128;DHT22;44912;52.754;5.994;2023-11-21T02:21:49;9.50;99.90
59128;DHT22;44912;52.754;5.994;2023-11-21T02:24:15;9.50;99.90
59128;DHT22;44912;52.754;5.994;2023-11-21T02:26:43;9.60;99.90
59128;DHT22;44912;52.754;5.994;2023-11-21T02:29:08;9.50;99.90
59128;DHT22;44912;52.754;5.994;2023-11-21T02:31:37;9.60;99.90
59128;DHT22;44912;52.754;5.994;2023-11-21T02:34:11;9.60;99.90
59128;DHT22;44912;52.754;5.994;2023-11-21T02:36:38;9.50;99.90
59128;DHT22;44912;52.754;5.994;2023-11-21T02:39:04;9.50;99.90
59128;DHT22;44912;52.754;5.994;2023-11-21T02:41:30;9.50;99.90
59128;DHT22;44912;52.754;5.994;2023-11-21T02:43:55;9.60;99.90
59128;DHT22;44912;52.754;5.994;2023-11-21T02:46:21;9.60;99.90
59128;DHT22;44912;52.754;5.994;2023-11-21T02:48:47;9.60;99.90
59128;DHT22;44912;52.754;5.994;2023-11-21T02:51:13;9.70;99.90
59128;DHT22;44912;52.754;5.994;2023-11-21T02:53:38;9.70;99.90
59128;DHT22;44912;52.754;5.994;2023-11-21T02:56:04;9.70;99.90
59128;DHT22;44912;52.754;5.994;2023-11-21T02:58:30;9.70;99.90
59128;DHT22;44912;52.754;5.994;2023-11-21T03:00:56;9.70;99.90
59128;DHT22;44912;52.754;5.994;2023-11-21T03:03:21;9.70;99.90
59128;DHT22;44912;52.754;5.994;2023-11-21T03:05:49;9.70;99.90
59128;DHT22;44912;52.754;5.994;2023-11-21T03:08:15;9.70;99.90
59128;DHT22;44912;52.754;5.994;2023-11-21T03:10:40;9.70;99.90
59128;DHT22;44912;52.754;5.994;2023-11-21T03:13:06;9.70;99.90
59128;DHT22;44912;52.754;5.994;2023-11-21T03:15:31;9.70;99.90
59128;DHT22;44912;52.754;5.994;2023-11-21T03:17:58;9.70;99.90
59128;DHT22;44912;52.754;5.994;2023-11-21T03:20:23;9.70;99.90
59128;DHT22;44912;52.754;5.994;2023-11-21T03:22:49;9.70;99.90
59128;DHT22;44912;52.754;5.994;2023-11-21T03:25:15;9.70;99.90
59128;DHT22;44912;52.754;5.994;2023-11-21T03:27:42;9.70;99.90
59128;DHT22;44912;52.754;5.994;2023-11-21T03:30:10;9.70;99.90
59128;DHT22;44912;52.754;5.994;2023-11-21T03:32:36;9.70;99.90
59128;DHT22;44912;52.754;5.994;2023-11-21T03:35:02;9.70;99.90
59128;DHT22;44912;52.754;5.994;2023-11-21T03:37:28;9.80;99.90
59128;DHT22;44912;52.754;5.994;2023-11-21T03:39:55;9.70;99.90
59128;DHT22;44912;52.754;5.994;2023-11-21T03:42:21;9.80;99.90
59128;DHT22;44912;52.754;5.994;2023-11-21T03:44:47;9.80;99.90
59128;DHT22;44912;52.754;5.994;2023-11-21T03:47:12;9.80;99.90
59128;DHT22;44912;52.754;5.994;2023-11-21T03:49:38;9.80;99.90
59128;DHT22;44912;52.754;5.994;2023-11-21T03:52:04;9.80;99.90
59128;DHT22;44912;52.754;5.994;2023-11-21T03:54:29;9.90;99.90
59128;DHT22;44912;52.754;5.994;2023-11-21T03:56:55;9.80;99.90
59128;DHT22;44912;52.754;5.994;2023-11-21T03:59:21;9.80;99.90
59128;DHT22;44912;52.754;5.994;2023-11-21T04:01:50;9.90;99.90
59128;DHT22;44912;52.754;5.994;2023-11-21T04:04:15;9.90;99.90
59128;DHT22;44912;52.754;5.994;2023-11-21T04:06:41;9.90;99.90
59128;DHT22;44912;52.754;5.994;2023-11-21T04:09:07;9.90;99.90
59128;DHT22;44912;52.754;5.994;2023-11-21T04:11:32;9.90;99.90
59128;DHT22;44912;52.754;5.994;2023-11-21T04:13:58;9.90;99.90
59128;DHT22;44912;52.754;5.994;2023-11-21T04:16:23;10.00;99.90
59128;DHT22;44912;52.754;5.994;2023-11-21T04:18:49;9.90;99.90
59128;DHT22;44912;52.754;5.994;2023-11-21T04:21:15;9.90;99.90
59128;DHT22;44912;52.754;5.994;2023-11-21T04:23:40;9.90;99.90
59128;DHT22;44912;52.754;5.994;2023-11-21T04:26:06;10.00;99.90
59128;DHT22;44912;52.754;5.994;2023-11-21T04:28:32;10.00;99.90
59128;DHT22;44912;52.754;5.994;2023-11-21T04:30:57;10.00;99.90
59128;DHT22;44912;52.754;5.994;2023-11-21T04:33:23;10.00;99.90
59128;DHT22;44912;52.754;5.994;2023-11-21T04:35:49;10.00;99.90
59128;DHT22;44912;52.754;5.994;2023-11-21T04:38:14;10.00;99.90
59128;DHT22;44912;52.754;5.994;2023-11-21T04:40:40;10.00;99.90
59128;DHT22;44912;52.754;5.994;2023-11-21T04:43:05;10.00;99.90
59128;DHT22;44912;52.754;5.994;2023-11-21T04:45:31;10.00;99.90
59128;DHT22;44912;52.754;5.994;2023-11-21T04:47:57;10.10;99.90
59128;DHT22;44912;52.754;5.994;2023-11-21T04:50:22;10.00;99.90
59128;DHT22;44912;52.754;5.994;2023-11-21T04:52:48;10.00;99.90
59128;DHT22;44912;52.754;5.994;2023-11-21T04:55:13;10.10;99.90
59128;DHT22;44912;52.754;5.994;2023-11-21T04:57:40;10.10;99.90
59128;DHT22;44912;52.754;5.994;2023-11-21T05:00:08;10.20;99.90
59128;DHT22;44912;52.754;5.994;2023-11-21T05:02:34;10.10;99.90
59128;DHT22;44912;52.754;5.994;2023-11-21T05:05:00;10.10;99.90
59128;DHT22;44912;52.754;5.994;2023-11-21T05:07:26;10.10;99.90
59128;DHT22;44912;52.754;5.994;2023-11-21T05:09:55;10.10;99.90
59128;DHT22;44912;52.754;5.994;2023-11-21T05:12:22;10.20;99.90
59128;DHT22;44912;52.754;5.994;2023-11-21T05:14:51;10.10;99.90
59128;DHT22;44912;52.754;5.994;2023-11-21T05:17:16;10.20;99.90
59128;DHT22;44912;52.754;5.994;2023-11-21T05:19:42;10.10;99.90
59128;DHT22;44912;52.754;5.994;2023-11-21T05:22:11;10.20;99.90
59128;DHT22;44912;52.754;5.994;2023-11-21T05:24:37;10.20;99.90
59128;DHT22;44912;52.754;5.994;2023-11-21T05:27:04;10.20;99.90
59128;DHT22;44912;52.754;5.994;2023-11-21T05:29:30;10.10;99.90
59128;DHT22;44912;52.754;5.994;2023-11-21T05:31:55;10.20;99.90
59128;DHT22;44912;52.754;5.994;2023-11-21T05:34:21;10.10;99.90
59128;DHT22;44912;52.754;5.994;2023-11-21T05:36:49;10.20;99.90
59128;DHT22;44912;52.754;5.994;2023-11-21T05:39:15;10.20;99.90
59128;DHT22;44912;52.754;5.994;2023-11-21T05:41:43;10.20;99.90
59128;DHT22;44912;52.754;5.994;2023-11-21T05:44:08;10.20;99.90
59128;DHT22;44912;52.754;5.994;2023-11-21T05:46:34;10.20;99.90
59128;DHT22;44912;52.754;5.994;2023-11-21T05:49:00;10.10;99.90
59128;DHT22;44912;52.754;5.994;2023-11-21T05:51:25;10.20;99.90
59128;DHT22;44912;52.754;5.994;2023-11-21T05:53:51;10.20;99.90
59128;DHT22;44912;52.754;5.994;2023-11-21T05:56:16;10.10;99.90
59128;DHT22;44912;52.754;5.994;2023-11-21T05:58:43;10.20;99.90
59128;DHT22;44912;52.754;5.994;2023-11-21T06:01:09;10.20;99.90
59128;DHT22;44912;52.754;5.994;2023-11-21T06:03:35;10.20;99.90
59128;DHT22;44912;52.754;5.994;2023-11-21T06:06:00;10.20;99.90
59128;DHT22;44912;52.754;5.994;2023-11-21T06:08:26;10.20;99.90
59128;DHT22;44912;52.754;5.994;2023-11-21T06:10:52;10.20;99.90
59128;DHT22;44912;52.754;5.994;2023-11-21T06:13:17;10.20;99.90
59128;DHT22;44912;52.754;5.994;2023-11-21T06:15:49;10.20;99.90
59128;DHT22;44912;52.754;5.994;2023-11-21T06:18:15;10.20;99.90
59128;DHT22;44912;52.754;5.994;2023-11-21T06:20:40;10.20;99.90
59128;DHT22;44912;52.754;5.994;2023-11-21T06:23:06;10.20;99.90
59128;DHT22;44912;52.754;5.994;2023-11-21T06:25:32;10.10;99.90
59128;DHT22;44912;52.754;5.994;2023-11-21T06:28:01;10.20;99.90
59128;DHT22;44912;52.754;5.994;2023-11-21T06:30:27;10.20;99.90
59128;DHT22;44912;52.754;5.994;2023-11-21T06:32:54;10.10;99.90
59128;DHT22;44912;52.754;5.994;2023-11-21T06:35:20;10.10;99.90
59128;DHT22;44912;52.754;5.994;2023-11-21T06:37:46;10.20;99.90
59128;DHT22;44912;52.754;5.994;2023-11-21T06:40:15;10.10;99.90
59128;DHT22;44912;52.754;5.994;2023-11-21T06:42:40;10.10;99.90
59128;DHT22;44912;52.754;5.994;2023-11-21T06:45:07;10.10;99.90
59128;DHT22;44912;52.754;5.994;2023-11-21T06:47:33;10.10;99.90
59128;DHT22;44912;52.754;5.994;2023-11-21T06:49:59;10.10;99.90
59128;DHT22;44912;52.754;5.994;2023-11-21T06:52:25;10.20;99.90
59128;DHT22;44912;52.754;5.994;2023-11-21T06:54:51;10.20;99.90
59128;DHT22;44912;52.754;5.994;2023-11-21T06:57:16;10.20;99.90
59128;DHT22;44912;52.754;5.994;2023-11-21T06:59:42;10.20;99.90
59128;DHT22;44912;52.754;5.994;2023-11-21T07:02:08;10.20;99.90
59128;DHT22;44912;52.754;5.994;2023-11-21T07:04:37;10.10;99.90
59128;DHT22;44912;52.754;5.994;2023-11-21T07:07:03;10.10;99.90
59128;DHT22;44912;52.754;5.994;2023-11-21T07:09:30;10.10;99.90
59128;DHT22;44912;52.754;5.994;2023-11-21T07:11:56;10.20;99.90
59128;DHT22;44912;52.754;5.994;2023-11-21T07:14:22;10.10;99.90
59128;DHT22;44912;52.754;5.994;2023-11-21T07:16:47;10.10;99.90
59128;DHT22;44912;52.754;5.994;2023-11-21T07:19:13;10.20;99.90
59128;DHT22;44912;52.754;5.994;2023-11-21T07:21:40;10.10;99.90
59128;DHT22;44912;52.754;5.994;2023-11-21T07:24:07;10.00;99.90
59128;DHT22;44912;52.754;5.994;2023-11-21T07:26:33;10.20;99.90
59128;DHT22;44912;52.754;5.994;2023-11-21T07:29:00;10.10;99.90
59128;DHT22;44912;52.754;5.994;2023-11-21T07:31:25;10.10;99.90
59128;DHT22;44912;52.754;5.994;2023-11-21T07:33:51;10.10;99.90
59128;DHT22;44912;52.754;5.994;2023-11-21T07:36:17;10.10;99.90
59128;DHT22;44912;52.754;5.994;2023-11-21T07:38:44;10.00;99.90
59128;DHT22;44912;52.754;5.994;2023-11-21T07:41:10;10.10;99.90
59128;DHT22;44912;52.754;5.994;2023-11-21T07:43:36;10.10;99.90
59128;DHT22;44912;52.754;5.994;2023-11-21T07:46:05;10.10;99.90
59128;DHT22;44912;52.754;5.994;2023-11-21T07:48:31;10.10;99.90
59128;DHT22;44912;52.754;5.994;2023-11-21T07:50:58;10.10;99.90
59128;DHT22;44912;52.754;5.994;2023-11-21T07:53:26;10.10;99.90
59128;DHT22;44912;52.754;5.994;2023-11-21T07:55:54;10.10;99.90
59128;DHT22;44912;52.754;5.994;2023-11-21T07:58:20;10.10;99.90
59128;DHT22;44912;52.754;5.994;2023-11-21T08:00:46;10.10;99.90
59128;DHT22;44912;52.754;5.994;2023-11-21T08:03:13;10.10;99.90
59128;DHT22;44912;52.754;5.994;2023-11-21T08:05:39;10.10;99.90
59128;DHT22;44912;52.754;5.994;2023-11-21T08:08:04;10.10;99.90
59128;DHT22;44912;52.754;5.994;2023-11-21T08:10:30;10.20;99.90
59128;DHT22;44912;52.754;5.994;2023-11-21T08:12:56;10.20;99.90
59128;DHT22;44912;52.754;5.994;2023-11-21T08:15:21;10.30;99.90
59128;DHT22;44912;52.754;5.994;2023-11-21T08:17:47;10.20;99.90
59128;DHT22;44912;52.754;5.994;2023-11-21T08:20:13;10.20;99.90
59128;DHT22;44912;52.754;5.994;2023-11-21T08:22:44;10.20;99.90
59128;DHT22;44912;52.754;5.994;2023-11-21T08:25:10;10.20;99.90
59128;DHT22;44912;52.754;5.994;2023-11-21T08:27:36;10.20;99.90
59128;DHT22;44912;52.754;5.994;2023-11-21T08:30:05;10.10;99.90
59128;DHT22;44912;52.754;5.994;2023-11-21T08:32:31;10.10;99.90
59128;DHT22;44912;52.754;5.994;2023-11-21T08:34:58;10.00;99.90
59128;DHT22;44912;52.754;5.994;2023-11-21T08:37:24;10.10;99.90
59128;DHT22;44912;52.754;5.994;2023-11-21T08:39:50;10.10;99.90
59128;DHT22;44912;52.754;5.994;2023-11-21T08:42:18;10.00;99.90
59128;DHT22;44912;52.754;5.994;2023-11-21T08:44:44;10.00;99.90
59128;DHT22;44912;52.754;5.994;2023-11-21T08:47:09;10.00;99.90
59128;DHT22;44912;52.754;5.994;2023-11-21T08:49:35;10.10;99.90
59128;DHT22;44912;52.754;5.994;2023-11-21T08:52:00;10.00;99.90
59128;DHT22;44912;52.754;5.994;2023-11-21T08:54:26;9.90;99.90
59128;DHT22;44912;52.754;5.994;2023-11-21T08:56:52;10.00;99.90
59128;DHT22;44912;52.754;5.994;2023-11-21T08:59:18;10.00;99.90
59128;DHT22;44912;52.754;5.994;2023-11-21T09:01:45;10.10;99.90
59128;DHT22;44912;52.754;5.994;2023-11-21T09:04:12;10.00;99.90
59128;DHT22;44912;52.754;5.994;2023-11-21T09:06:38;10.00;99.90
59128;DHT22;44912;52.754;5.994;2023-11-21T09:09:03;10.00;99.90
59128;DHT22;44912;52.754;5.994;2023-11-21T09:11:34;10.00;99.90
59128;DHT22;44912;52.754;5.994;2023-11-21T09:14:00;10.00;99.90
59128;DHT22;44912;52.754;5.994;2023-11-21T09:16:26;10.00;99.90
59128;DHT22;44912;52.754;5.994;2023-11-21T09:18:51;10.00;99.90
59128;DHT22;44912;52.754;5.994;2023-11-21T09:21:17;10.00;99.90
59128;DHT22;44912;52.754;5.994;2023-11-21T09:23:44;9.90;99.90
59128;DHT22;44912;52.754;5.994;2023-11-21T09:26:10;9.90;99.90
59128;DHT22;44912;52.754;5.994;2023-11-21T09:28:35;9.90;99.90
59128;DHT22;44912;52.754;5.994;2023-11-21T09:31:04;10.00;99.90
59128;DHT22;44912;52.754;5.994;2023-11-21T09:33:30;9.90;99.90
59128;DHT22;44912;52.754;5.994;2023-11-21T09:35:56;10.00;99.90
59128;DHT22;44912;52.754;5.994;2023-11-21T09:38:23;10.00;99.90
59128;DHT22;44912;52.754;5.994;2023-11-21T09:40:48;10.00;99.90
59128;DHT22;44912;52.754;5.994;2023-11-21T09:43:18;9.90;99.90
59128;DHT22;44912;52.754;5.994;2023-11-21T09:45:54;10.00;99.90
59128;DHT22;44912;52.754;5.994;2023-11-21T09:48:23;10.00;99.90
59128;DHT22;44912;52.754;5.994;2023-11-21T09:50:50;10.00;99.90
59128;DHT22;44912;52.754;5.994;2023-11-21T09:53:20;10.00;99.90
59128;DHT22;44912;52.754;5.994;2023-11-21T09:55:48;10.00;99.90
59128;DHT22;44912;52.754;5.994;2023-11-21T09:58:14;10.10;99.90
59128;DHT22;44912;52.754;5.994;2023-11-21T10:00:41;10.10;99.90
59128;DHT22;44912;52.754;5.994;2023-11-21T10:03:07;10.10;99.90
59128;DHT22;44912;52.754;5.994;2023-11-21T10:05:34;10.10;99.90
59128;DHT22;44912;52.754;5.994;2023-11-21T10:08:00;10.10;99.90
59128;DHT22;44912;52.754;5.994;2023-11-21T10:10:27;10.20;99.90
59128;DHT22;44912;52.754;5.994;2023-11-21T10:13:00;10.20;99.90
59128;DHT22;44912;52.754;5.994;2023-11-21T10:15:28;10.20;99.90
59128;DHT22;44912;52.754;5.994;2023-11-21T10:17:55;10.30;99.90
59128;DHT22;44912;52.754;5.994;2023-11-21T10:20:21;10.20;99.90
59128;DHT22;44912;52.754;5.994;2023-11-21T10:22:49;10.20;99.90
59128;DHT22;44912;52.754;5.994;2023-11-21T10:25:15;10.30;99.90
59128;DHT22;44912;52.754;5.994;2023-11-21T10:27:41;10.20;99.90
59128;DHT22;44912;52.754;5.994;2023-11-21T10:30:09;10.20;99.90
59128;DHT22;44912;52.754;5.994;2023-11-21T10:32:40;10.10;99.90
59128;DHT22;44912;52.754;5.994;2023-11-21T10:35:09;10.10;99.90
59128;DHT22;44912;52.754;5.994;2023-11-21T10:37:39;10.30;99.90
59128;DHT22;44912;52.754;5.994;2023-11-21T10:40:11;10.20;99.90
59128;DHT22;44912;52.754;5.994;2023-11-21T10:42:41;10.20;99.90
59128;DHT22;44912;52.754;5.994;2023-11-21T10:45:10;10.20;99.90
59128;DHT22;44912;52.754;5.994;2023-11-21T10:47:41;10.30;99.90
59128;DHT22;44912;52.754;5.994;2023-11-21T10:50:07;10.30;99.90
59128;DHT22;44912;52.754;5.994;2023-11-21T10:52:37;10.30;99.90
59128;DHT22;44912;52.754;5.994;2023-11-21T10:55:17;10.40;99.90
59128;DHT22;44912;52.754;5.994;2023-11-21T10:57:45;10.40;99.90
59128;DHT22;44912;52.754;5.994;2023-11-21T11:00:12;10.30;99.90
59128;DHT22;44912;52.754;5.994;2023-11-21T11:02:39;10.20;99.90
59128;DHT22;44912;52.754;5.994;2023-11-21T11:05:05;10.20;99.90
59128;DHT22;44912;52.754;5.994;2023-11-21T11:07:32;10.30;99.90
59128;DHT22;44912;52.754;5.994;2023-11-21T11:09:59;10.20;99.90
59128;DHT22;44912;52.754;5.994;2023-11-21T11:12:25;10.10;99.90
59128;DHT22;44912;52.754;5.994;2023-11-21T11:14:51;10.10;99.90
59128;DHT22;44912;52.754;5.994;2023-11-21T11:17:19;10.10;99.90
59128;DHT22;44912;52.754;5.994;2023-11-21T11:19:46;10.00;99.90
59128;DHT22;44912;52.754;5.994;2023-11-21T11:28:03;9.90;99.90
59128;DHT22;44912;52.754;5.994;2023-11-21T11:30:36;9.80;99.90
59128;DHT22;44912;52.754;5.994;2023-11-21T11:33:41;9.80;99.90
59128;DHT22;44912;52.754;5.994;2023-11-21T11:36:26;9.70;99.90
59128;DHT22;44912;52.754;5.994;2023-11-21T11:38:53;9.60;99.90
59128;DHT22;44912;52.754;5.994;2023-11-21T11:41:34;9.70;99.90
59128;DHT22;44912;52.754;5.994;2023-11-21T11:44:00;9.70;99.90
59128;DHT22;44912;52.754;5.994;2023-11-21T11:46:45;9.60;99.90
59128;DHT22;44912;52.754;5.994;2023-11-21T11:49:23;9.70;99.90
59128;DHT22;44912;52.754;5.994;2023-11-21T11:54:55;9.70;99.90
59128;DHT22;44912;52.754;5.994;2023-11-21T11:57:24;9.70;99.90
59128;DHT22;44912;52.754;5.994;2023-11-21T12:02:38;9.70;99.90
59128;DHT22;44912;52.754;5.994;2023-11-21T12:05:12;9.70;99.90
59128;DHT22;44912;52.754;5.994;2023-11-21T12:10:18;9.70;99.90
59128;DHT22;44912;52.754;5.994;2023-11-21T12:12:46;9.60;99.90
59128;DHT22;44912;52.754;5.994;2023-11-21T12:15:12;9.70;99.90
59128;DHT22;44912;52.754;5.994;2023-11-21T12:17:39;9.60;99.90
59128;DHT22;44912;52.754;5.994;2023-11-21T12:20:05;9.70;99.90
59128;DHT22;44912;52.754;5.994;2023-11-21T12:22:53;9.60;99.90
59128;DHT22;44912;52.754;5.994;2023-11-21T12:25:24;9.50;99.90
59128;DHT22;44912;52.754;5.994;2023-11-21T12:27:53;9.50;99.90
59128;DHT22;44912;52.754;5.994;2023-11-21T12:30:20;9.40;99.90
59128;DHT22;44912;52.754;5.994;2023-11-21T12:32:52;9.40;99.90
59128;DHT22;44912;52.754;5.994;2023-11-21T12:35:26;9.50;99.90
59128;DHT22;44912;52.754;5.994;2023-11-21T12:37:54;9.40;99.90
59128;DHT22;44912;52.754;5.994;2023-11-21T12:40:20;9.30;99.90
59128;DHT22;44912;52.754;5.994;2023-11-21T12:42:50;9.20;99.90
59128;DHT22;44912;52.754;5.994;2023-11-21T12:48:05;9.10;99.90
59128;DHT22;44912;52.754;5.994;2023-11-21T12:50:37;9.20;99.90
59128;DHT22;44912;52.754;5.994;2023-11-21T12:53:04;9.20;99.90
59128;DHT22;44912;52.754;5.994;2023-11-21T12:55:31;9.20;99.90
59128;DHT22;44912;52.754;5.994;2023-11-21T12:57:57;9.30;99.90
59128;DHT22;44912;52.754;5.994;2023-11-21T13:03:03;9.60;99.90
59128;DHT22;44912;52.754;5.994;2023-11-21T13:05:32;9.50;99.90
59128;DHT22;44912;52.754;5.994;2023-11-21T13:08:01;9.60;99.90
59128;DHT22;44912;52.754;5.994;2023-11-21T13:10:32;9.50;99.90
59128;DHT22;44912;52.754;5.994;2023-11-21T13:12:59;9.50;99.90
59128;DHT22;44912;52.754;5.994;2023-11-21T13:15:26;9.50;99.90
59128;DHT22;44912;52.754;5.994;2023-11-21T13:17:53;9.60;99.90
59128;DHT22;44912;52.754;5.994;2023-11-21T13:20:23;9.70;99.90
59128;DHT22;44912;52.754;5.994;2023-11-21T13:22:51;9.80;99.90
59128;DHT22;44912;52.754;5.994;2023-11-21T13:25:23;9.70;99.90
59128;DHT22;44912;52.754;5.994;2023-11-21T13:27:49;9.80;99.90
59128;DHT22;44912;52.754;5.994;2023-11-21T13:30:16;9.90;99.90
59128;DHT22;44912;52.754;5.994;2023-11-21T13:32:45;10.00;99.90
59128;DHT22;44912;52.754;5.994;2023-11-21T13:35:12;9.90;99.90
59128;DHT22;44912;52.754;5.994;2023-11-21T13:37:50;10.00;99.90
59128;DHT22;44912;52.754;5.994;2023-11-21T13:40:22;9.90;99.90
59128;DHT22;44912;52.754;5.994;2023-11-21T13:42:54;9.80;99.90
59128;DHT22;44912;52.754;5.994;2023-11-21T13:45:23;9.80;99.90
59128;DHT22;44912;52.754;5.994;2023-11-21T13:47:51;9.90;99.90
59128;DHT22;44912;52.754;5.994;2023-11-21T13:50:18;9.90;99.90
59128;DHT22;44912;52.754;5.994;2023-11-21T13:52:48;9.90;99.90
59128;DHT22;44912;52.754;5.994;2023-11-21T13:55:15;9.80;99.90
59128;DHT22;44912;52.754;5.994;2023-11-21T13:57:42;9.70;99.90
59128;DHT22;44912;52.754;5.994;2023-11-21T14:00:15;9.60;99.90
59128;DHT22;44912;52.754;5.994;2023-11-21T14:03:01;9.50;99.90
59128;DHT22;44912;52.754;5.994;2023-11-21T14:05:27;9.50;99.90
59128;DHT22;44912;52.754;5.994;2023-11-21T14:07:57;9.50;99.90
59128;DHT22;44912;52.754;5.994;2023-11-21T14:10:29;9.50;99.90
59128;DHT22;44912;52.754;5.994;2023-11-21T14:13:03;9.50;99.90
59128;DHT22;44912;52.754;5.994;2023-11-21T14:15:29;9.50;99.90
59128;DHT22;44912;52.754;5.994;2023-11-21T14:17:56;9.40;99.90
59128;DHT22;44912;52.754;5.994;2023-11-21T14:20:22;9.50;99.90
59128;DHT22;44912;52.754;5.994;2023-11-21T14:22:47;9.40;99.90
59128;DHT22;44912;52.754;5.994;2023-11-21T14:25:13;9.30;99.90
59128;DHT22;44912;52.754;5.994;2023-11-21T14:27:39;9.20;99.90
59128;DHT22;44912;52.754;5.994;2023-11-21T14:30:06;9.20;99.90
59128;DHT22;44912;52.754;5.994;2023-11-21T14:32:31;9.20;99.90
59128;DHT22;44912;52.754;5.994;2023-11-21T14:34:57;9.20;99.90
59128;DHT22;44912;52.754;5.994;2023-11-21T14:37:23;9.10;99.90
59128;DHT22;44912;52.754;5.994;2023-11-21T14:39:49;9.10;99.90
59128;DHT22;44912;52.754;5.994;2023-11-21T14:42:15;9.10;99.90
59128;DHT22;44912;52.754;5.994;2023-11-21T14:44:41;8.90;99.90
59128;DHT22;44912;52.754;5.994;2023-11-21T14:47:08;8.90;99.90
59128;DHT22;44912;52.754;5.994;2023-11-21T14:49:44;8.90;99.90
59128;DHT22;44912;52.754;5.994;2023-11-21T14:52:19;9.00;99.90
59128;DHT22;44912;52.754;5.994;2023-11-21T14:54:58;9.00;99.90
59128;DHT22;44912;52.754;5.994;2023-11-21T14:57:42;9.00;99.90
59128;DHT22;44912;52.754;5.994;2023-11-21T15:00:16;9.10;99.90
59128;DHT22;44912;52.754;5.994;2023-11-21T15:03:02;9.00;99.90
59128;DHT22;44912;52.754;5.994;2023-11-21T15:05:28;9.10;99.90
59128;DHT22;44912;52.754;5.994;2023-11-21T15:07:54;9.10;99.90
59128;DHT22;44912;52.754;5.994;2023-11-21T15:10:24;9.10;99.90
59128;DHT22;44912;52.754;5.994;2023-11-21T15:13:05;9.10;99.90
59128;DHT22;44912;52.754;5.994;2023-11-21T15:15:36;9.10;99.90
59128;DHT22;44912;52.754;5.994;2023-11-21T15:18:02;9.00;99.90
59128;DHT22;44912;52.754;5.994;2023-11-21T15:20:28;9.00;99.90
59128;DHT22;44912;52.754;5.994;2023-11-21T15:22:55;8.90;99.90
59128;DHT22;44912;52.754;5.994;2023-11-21T15:25:21;8.90;99.90
59128;DHT22;44912;52.754;5.994;2023-11-21T15:27:47;8.80;99.90
59128;DHT22;44912;52.754;5.994;2023-11-21T15:30:15;8.90;99.90
59128;DHT22;44912;52.754;5.994;2023-11-21T15:32:45;8.80;99.90
59128;DHT22;44912;52.754;5.994;2023-11-21T15:35:11;8.90;99.90
59128;DHT22;44912;52.754;5.994;2023-11-21T15:37:40;8.80;99.90
59128;DHT22;44912;52.754;5.994;2023-11-21T15:40:06;8.80;99.90
59128;DHT22;44912;52.754;5.994;2023-11-21T15:42:34;8.80;99.90
59128;DHT22;44912;52.754;5.994;2023-11-21T15:45:01;8.80;99.90
59128;DHT22;44912;52.754;5.994;2023-11-21T15:47:27;8.80;99.90
59128;DHT22;44912;52.754;5.994;2023-11-21T15:49:52;8.80;99.90
59128;DHT22;44912;52.754;5.994;2023-11-21T15:52:18;8.70;99.90
59128;DHT22;44912;52.754;5.994;2023-11-21T15:54:44;8.70;99.90
59128;DHT22;44912;52.754;5.994;2023-11-21T15:57:12;8.60;99.90
59128;DHT22;44912;52.754;5.994;2023-11-21T15:59:40;8.60;99.90
59128;DHT22;44912;52.754;5.994;2023-11-21T16:02:07;8.50;99.90